createdAt,value
2022-09-02T04:00:31.851Z,1004.18
2022-09-02T04:01:35.041Z,1004.21
2022-09-02T04:02:31.949Z,1004.23
2022-09-02T04:03:31.758Z,1004.21
2022-09-02T04:04:31.758Z,1004.21
2022-09-02T04:05:31.737Z,1004.22
2022-09-02T04:06:32.728Z,1004.23
2022-09-02T04:07:31.723Z,1004.20
2022-09-02T04:08:31.701Z,1004.20
2022-09-02T04:09:31.714Z,1004.24
2022-09-02T04:10:31.681Z,1004.24
2022-09-02T04:11:36.691Z,1004.18
2022-09-02T04:12:32.211Z,1004.20
2022-09-02T04:13:31.646Z,1004.19
2022-09-02T04:14:31.645Z,1004.18
2022-09-02T04:15:31.625Z,1004.18
2022-09-02T04:16:31.714Z,1004.18
2022-09-02T04:17:31.609Z,1004.18
2022-09-02T04:18:31.596Z,1004.25
2022-09-02T04:19:31.595Z,1004.22
2022-09-02T04:20:31.567Z,1004.23
2022-09-02T04:21:31.558Z,1004.21
2022-09-02T04:22:36.569Z,1004.21
2022-09-02T04:23:31.549Z,1004.13
2022-09-02T04:24:31.541Z,1004.24
2022-09-02T04:25:31.515Z,1004.17
2022-09-02T04:26:31.499Z,1004.19
2022-09-02T04:27:31.507Z,1004.22
2022-09-02T04:28:31.478Z,1004.21
2022-09-02T04:29:31.486Z,1004.23
2022-09-02T04:30:31.458Z,1004.22
2022-09-02T04:31:31.510Z,1004.24
2022-09-02T04:32:31.434Z,1004.20
2022-09-02T04:33:36.451Z,1004.21
2022-09-02T04:34:31.413Z,1004.22
2022-09-02T04:35:31.417Z,1004.17
2022-09-02T04:36:31.405Z,1004.24
2022-09-02T04:37:31.381Z,1004.24
2022-09-02T04:38:31.366Z,1004.21
2022-09-02T04:39:31.355Z,1004.20
2022-09-02T04:40:31.367Z,1004.19
2022-09-02T04:41:31.335Z,1004.27
2022-09-02T04:42:31.320Z,1004.24
2022-09-02T04:43:31.311Z,1004.23
2022-09-02T04:44:36.323Z,1004.21
2022-09-02T04:45:31.297Z,1004.25
2022-09-02T04:46:34.511Z,1004.26
2022-09-02T04:47:31.270Z,1004.26
2022-09-02T04:48:31.254Z,1004.26
2022-09-02T04:49:31.247Z,1004.22
2022-09-02T04:50:31.245Z,1004.26
2022-09-02T04:51:31.229Z,1004.25
2022-09-02T04:52:31.210Z,1004.17
2022-09-02T04:53:31.205Z,1004.22
2022-09-02T04:54:31.192Z,1004.28
2022-09-02T04:55:36.215Z,1004.26
2022-09-02T04:56:31.166Z,1004.25
2022-09-02T04:57:31.155Z,1004.25
2022-09-02T04:58:31.141Z,1004.18
2022-09-02T04:59:31.134Z,1004.21
2022-09-02T05:00:31.133Z,1004.24
2022-09-02T05:01:31.167Z,1004.22
2022-09-02T05:02:31.152Z,1004.22
2022-09-02T05:03:31.088Z,1004.22
2022-09-02T05:04:31.076Z,1004.25
2022-09-02T05:05:31.082Z,1004.22
2022-09-02T05:06:39.515Z,1004.20
2022-09-02T05:07:32.045Z,1004.22
2022-09-02T05:08:31.031Z,1004.21
2022-09-02T05:09:31.021Z,1004.25
2022-09-02T05:10:31.027Z,1004.29
2022-09-02T05:11:31.002Z,1004.26
2022-09-02T05:12:30.990Z,1004.29
2022-09-02T05:13:30.976Z,1004.26
2022-09-02T05:14:30.995Z,1004.29
2022-09-02T05:15:31.065Z,1004.32
2022-09-02T05:16:30.945Z,1004.23
2022-09-02T05:17:35.955Z,1004.31
2022-09-02T05:18:30.919Z,1004.23
2022-09-02T05:19:30.913Z,1004.22
2022-09-02T05:20:30.909Z,1004.24
2022-09-02T05:21:30.896Z,1004.30
2022-09-02T05:22:30.876Z,1004.30
2022-09-02T05:23:30.874Z,1004.31
2022-09-02T05:24:30.851Z,1004.29
2022-09-02T05:25:30.855Z,1004.28
2022-09-02T05:26:30.829Z,1004.39
2022-09-02T05:27:30.820Z,1004.39
2022-09-02T05:28:35.828Z,1004.31
2022-09-02T05:29:30.799Z,1004.32
2022-09-02T05:30:30.800Z,1004.27
2022-09-02T05:31:30.867Z,1004.35
2022-09-02T05:32:34.372Z,1004.30
2022-09-02T05:33:31.763Z,1004.36
2022-09-02T05:34:30.741Z,1004.36
2022-09-02T05:35:30.740Z,1004.33
2022-09-02T05:36:30.723Z,1004.36
2022-09-02T05:37:30.709Z,1004.40
2022-09-02T05:38:30.695Z,1004.32
2022-09-02T05:39:35.713Z,1004.31
2022-09-02T05:40:30.767Z,1004.35
2022-09-02T05:41:30.683Z,1004.38
2022-09-02T05:42:30.652Z,1004.31
2022-09-02T05:43:30.642Z,1004.37
2022-09-02T05:44:30.627Z,1004.33
2022-09-02T05:45:30.638Z,1004.34
2022-09-02T05:46:30.692Z,1004.34
2022-09-02T05:47:30.597Z,1004.33
2022-09-02T05:48:30.588Z,1004.33
2022-09-02T05:49:30.574Z,1004.35
2022-09-02T05:50:35.593Z,1004.41
2022-09-02T05:51:30.551Z,1004.32
2022-09-02T05:52:30.540Z,1004.32
2022-09-02T05:53:30.531Z,1004.33
2022-09-02T05:54:30.540Z,1004.32
2022-09-02T05:55:30.520Z,1004.38
2022-09-02T05:56:30.502Z,1004.35
2022-09-02T05:57:30.487Z,1004.31
2022-09-02T05:58:30.486Z,1004.38
2022-09-02T05:59:30.487Z,1004.32
2022-09-02T06:00:30.464Z,1004.42
2022-09-02T06:01:35.547Z,1004.40
2022-09-02T06:02:30.560Z,1004.40
2022-09-02T06:03:30.428Z,1004.39
2022-09-02T06:04:30.412Z,1004.43
2022-09-02T06:05:30.416Z,1004.40
2022-09-02T06:06:30.389Z,1004.40
2022-09-02T06:07:30.376Z,1004.39
2022-09-02T06:08:30.368Z,1004.39
2022-09-02T06:09:30.355Z,1004.32
2022-09-02T06:10:30.362Z,1004.41
2022-09-02T06:11:30.335Z,1004.36
2022-09-02T06:12:39.349Z,1004.37
2022-09-02T06:13:31.310Z,1004.33
2022-09-02T06:14:30.318Z,1004.29
2022-09-02T06:15:30.356Z,1004.33
2022-09-02T06:16:30.276Z,1004.34
2022-09-02T06:17:30.280Z,1004.33
2022-09-02T06:18:30.255Z,1004.32
2022-09-02T06:19:30.248Z,1004.37
2022-09-02T06:20:30.252Z,1004.34
2022-09-02T06:21:30.222Z,1004.27
2022-09-02T06:22:30.209Z,1004.30
2022-09-02T06:23:35.231Z,1004.33
2022-09-02T06:24:30.187Z,1004.34
2022-09-02T06:25:30.178Z,1004.29
2022-09-02T06:26:30.176Z,1004.32
2022-09-02T06:27:30.155Z,1004.33
2022-09-02T06:28:30.161Z,1004.34
2022-09-02T06:29:30.135Z,1004.37
2022-09-02T06:30:30.159Z,1004.37
2022-09-02T06:31:34.379Z,1004.39
2022-09-02T06:32:30.102Z,1004.32
2022-09-02T06:33:30.095Z,1004.26
2022-09-02T06:34:35.103Z,1004.28
2022-09-02T06:35:30.068Z,1004.24
2022-09-02T06:36:30.066Z,1004.24
2022-09-02T06:37:30.056Z,1004.23
2022-09-02T06:38:30.033Z,1004.27
2022-09-02T06:39:30.023Z,1004.27
2022-09-02T06:40:30.075Z,1004.21
2022-09-02T06:41:30.009Z,1004.21
2022-09-02T06:42:30.026Z,1004.26
2022-09-02T06:43:29.980Z,1004.25
2022-09-02T06:44:32.528Z,1004.27
2022-09-02T06:45:34.988Z,1004.27
2022-09-02T06:46:30.054Z,1004.29
2022-09-02T06:47:29.935Z,1004.34
2022-09-02T06:48:29.936Z,1004.33
2022-09-02T06:49:29.914Z,1004.35
2022-09-02T06:50:29.909Z,1004.30
2022-09-02T06:51:29.888Z,1004.35
2022-09-02T06:52:29.902Z,1004.36
2022-09-02T06:53:29.868Z,1004.34
2022-09-02T06:54:29.856Z,1004.25
2022-09-02T06:55:29.901Z,1004.28
2022-09-02T06:56:34.857Z,1004.27
2022-09-02T06:57:31.321Z,1004.33
2022-09-02T06:58:29.820Z,1004.29
2022-09-02T06:59:29.801Z,1004.32
2022-09-02T07:00:29.799Z,1004.36
2022-09-02T07:01:29.884Z,1004.29
2022-09-02T07:02:29.764Z,1004.30
2022-09-02T07:03:29.761Z,1004.32
2022-09-02T07:04:29.768Z,1004.28
2022-09-02T07:05:29.746Z,1004.39
2022-09-02T07:06:29.742Z,1004.34
2022-09-02T07:07:34.736Z,1004.35
2022-09-02T07:08:29.697Z,1004.39
2022-09-02T07:09:29.689Z,1004.37
2022-09-02T07:10:29.712Z,1004.30
2022-09-02T07:11:29.670Z,1004.28
2022-09-02T07:12:29.657Z,1004.30
2022-09-02T07:13:29.646Z,1004.28
2022-09-02T07:14:29.631Z,1004.37
2022-09-02T07:15:29.640Z,1004.28
2022-09-02T07:16:29.646Z,1004.28
2022-09-02T07:17:29.600Z,1004.28
2022-09-02T07:18:34.611Z,1004.27
2022-09-02T07:19:29.578Z,1004.29
2022-09-02T07:20:29.565Z,1004.30
2022-09-02T07:21:29.571Z,1004.32
2022-09-02T07:22:29.551Z,1004.29
2022-09-02T07:23:29.551Z,1004.28
2022-09-02T07:24:29.523Z,1004.24
2022-09-02T07:25:29.517Z,1004.31
2022-09-02T07:26:29.514Z,1004.30
2022-09-02T07:27:29.489Z,1004.30
2022-09-02T07:28:29.476Z,1004.26
2022-09-02T07:29:34.490Z,1004.22
2022-09-02T07:30:29.516Z,1004.25
2022-09-02T07:31:29.461Z,1004.23
2022-09-02T07:32:29.432Z,1004.23
2022-09-02T07:33:29.425Z,1004.24
2022-09-02T07:34:29.415Z,1004.23
2022-09-02T07:35:29.404Z,1004.19
2022-09-02T07:36:29.413Z,1004.21
2022-09-02T07:37:29.378Z,1004.14
2022-09-02T07:38:29.369Z,1004.20
2022-09-02T07:39:29.361Z,1004.20
2022-09-02T07:40:34.408Z,1004.12
2022-09-02T07:41:29.345Z,1004.16
2022-09-02T07:42:29.325Z,1004.19
2022-09-02T07:43:29.316Z,1004.25
2022-09-02T07:44:29.313Z,1004.24
2022-09-02T07:45:29.292Z,1004.28
2022-09-02T07:46:29.394Z,1004.30
2022-09-02T07:47:29.268Z,1004.30
2022-09-02T07:48:29.262Z,1004.28
2022-09-02T07:50:14.466Z,1004.23
2022-09-02T07:50:30.234Z,1004.27
2022-09-02T07:51:34.267Z,1004.32
2022-09-02T07:52:29.212Z,1004.27
2022-09-02T07:53:29.204Z,1004.24
2022-09-02T07:54:29.188Z,1004.25
2022-09-02T07:55:29.180Z,1004.24
2022-09-02T07:56:29.184Z,1004.18
2022-09-02T07:57:29.160Z,1004.16
2022-09-02T07:58:29.144Z,1004.23
2022-09-02T07:59:29.135Z,1004.17
2022-09-02T08:00:29.122Z,1004.24
2022-09-02T08:01:29.348Z,1004.24
2022-09-02T08:02:34.144Z,1004.21
2022-09-02T08:03:29.095Z,1004.16
2022-09-02T08:04:29.077Z,1004.19
2022-09-02T08:05:29.072Z,1004.19
2022-09-02T08:06:34.935Z,1004.20
2022-09-02T08:07:30.045Z,1004.21
2022-09-02T08:08:29.037Z,1004.27
2022-09-02T08:09:29.024Z,1004.27
2022-09-02T08:10:29.010Z,1004.23
2022-09-02T08:11:29.013Z,1004.26
2022-09-02T08:12:28.989Z,1004.25
2022-09-02T08:13:34.002Z,1004.26
2022-09-02T08:14:28.973Z,1004.25
2022-09-02T08:15:28.956Z,1004.20
2022-09-02T08:16:29.207Z,1004.22
2022-09-02T08:17:28.935Z,1004.21
2022-09-02T08:18:28.927Z,1004.31
2022-09-02T08:19:28.912Z,1004.27
2022-09-02T08:20:28.904Z,1004.26
2022-09-02T08:21:28.899Z,1004.31
2022-09-02T08:22:28.889Z,1004.28
2022-09-02T08:23:37.486Z,1004.30
2022-09-02T08:24:34.877Z,1004.37
2022-09-02T08:25:28.844Z,1004.20
2022-09-02T08:26:28.851Z,1004.24
2022-09-02T08:27:28.822Z,1004.21
2022-09-02T08:28:28.812Z,1004.22
2022-09-02T08:29:28.803Z,1004.26
2022-09-02T08:30:28.790Z,1004.19
2022-09-02T08:31:28.825Z,1004.30
2022-09-02T08:32:28.773Z,1004.23
2022-09-02T08:33:28.803Z,1004.27
2022-09-02T08:34:28.747Z,1004.17
2022-09-02T08:35:33.763Z,1004.22
2022-09-02T08:36:28.733Z,1004.18
2022-09-02T08:37:28.724Z,1004.11
2022-09-02T08:38:28.701Z,1004.17
2022-09-02T08:39:28.691Z,1004.19
2022-09-02T08:40:28.709Z,1004.07
2022-09-02T08:41:28.684Z,1004.20
2022-09-02T08:42:28.657Z,1004.09
2022-09-02T08:43:28.666Z,1004.15
2022-09-02T08:44:28.636Z,1004.16
2022-09-02T08:45:28.671Z,1004.13
2022-09-02T08:46:33.646Z,1004.12
2022-09-02T08:47:28.601Z,1004.11
2022-09-02T08:48:28.592Z,1004.16
2022-09-02T08:49:28.583Z,1004.12
2022-09-02T08:50:28.572Z,1004.12
2022-09-02T08:51:33.783Z,1004.08
2022-09-02T08:52:29.549Z,1004.03
2022-09-02T08:53:28.552Z,1004.05
2022-09-02T08:54:28.566Z,1004.09
2022-09-02T08:55:28.525Z,1004.09
2022-09-02T08:56:28.522Z,1004.06
2022-09-02T08:57:33.513Z,1004.14
2022-09-02T08:58:28.482Z,1004.07
2022-09-02T08:59:28.504Z,1004.08
2022-09-02T09:00:28.461Z,1004.10
2022-09-02T09:01:28.544Z,1004.15
2022-09-02T09:02:28.518Z,1004.12
2022-09-02T09:03:28.429Z,1004.09
2022-09-02T09:04:28.416Z,1004.08
2022-09-02T09:05:28.409Z,1004.05
2022-09-02T09:06:28.407Z,1004.06
2022-09-02T09:07:28.421Z,1004.09
2022-09-02T09:08:33.397Z,1004.05
2022-09-02T09:09:28.361Z,1004.08
2022-09-02T09:10:28.352Z,1004.08
2022-09-02T09:11:28.358Z,1004.05
2022-09-02T09:12:28.332Z,1004.01
2022-09-02T09:13:28.322Z,1004.03
2022-09-02T09:14:28.316Z,1004.09
2022-09-02T09:15:28.295Z,1004.02
2022-09-02T09:16:32.046Z,1004.01
2022-09-02T09:17:28.284Z,1003.97
2022-09-02T09:18:28.265Z,1004.03
2022-09-02T09:19:33.273Z,1003.97
2022-09-02T09:20:28.250Z,1003.99
2022-09-02T09:21:28.234Z,1004.04
2022-09-02T09:22:28.232Z,1003.99
2022-09-02T09:23:28.501Z,1003.97
2022-09-02T09:24:29.195Z,1003.96
2022-09-02T09:25:28.188Z,1003.99
2022-09-02T09:26:28.174Z,1004.02
2022-09-02T09:27:28.174Z,1003.97
2022-09-02T09:28:28.151Z,1004.00
2022-09-02T09:29:28.140Z,1003.91
2022-09-02T09:30:33.156Z,1003.91
2022-09-02T09:31:28.146Z,1003.93
2022-09-02T09:32:28.118Z,1003.95
2022-09-02T09:33:28.101Z,1003.94
2022-09-02T09:34:28.086Z,1004.00
2022-09-02T09:35:28.075Z,1003.93
2022-09-02T09:36:28.064Z,1003.89
2022-09-02T09:37:30.720Z,1003.91
2022-09-02T09:38:28.045Z,1003.92
2022-09-02T09:39:28.030Z,1003.88
2022-09-02T09:40:28.082Z,1003.86
2022-09-02T09:41:33.029Z,1003.84
2022-09-02T09:42:28.033Z,1003.95
2022-09-02T09:43:28.053Z,1003.92
2022-09-02T09:44:27.975Z,1003.91
2022-09-02T09:45:28.046Z,1003.84
2022-09-02T09:46:27.960Z,1003.89
2022-09-02T09:47:27.953Z,1003.82
2022-09-02T09:48:27.959Z,1003.75
2022-09-02T09:49:27.920Z,1003.76
2022-09-02T09:50:27.926Z,1003.74
2022-09-02T09:51:27.899Z,1003.79
2022-09-02T09:52:32.934Z,1003.76
2022-09-02T09:53:27.884Z,1003.75
2022-09-02T09:54:27.871Z,1003.78
2022-09-02T09:55:27.873Z,1003.80
2022-09-02T09:56:27.844Z,1003.72
2022-09-02T09:57:31.469Z,1003.66
2022-09-02T09:58:28.828Z,1003.68
2022-09-02T09:59:27.816Z,1003.68
2022-09-02T10:00:27.800Z,1003.65
2022-09-02T10:01:27.910Z,1003.63
2022-09-02T10:02:27.872Z,1003.63
2022-09-02T10:03:32.914Z,1003.72
2022-09-02T10:04:44.010Z,1003.66
2022-09-02T10:05:28.743Z,1003.72
2022-09-02T10:06:27.738Z,1003.69
2022-09-02T10:07:27.735Z,1003.72
2022-09-02T10:08:27.734Z,1003.64
2022-09-02T10:09:27.701Z,1003.70
2022-09-02T10:10:27.698Z,1003.70
2022-09-02T10:11:27.686Z,1003.79
2022-09-02T10:12:27.679Z,1003.69
2022-09-02T10:13:27.665Z,1003.64
2022-09-02T10:14:32.683Z,1003.65
2022-09-02T10:15:27.638Z,1003.70
2022-09-02T10:16:27.678Z,1003.68
2022-09-02T10:17:27.634Z,1003.70
2022-09-02T10:18:27.604Z,1003.61
2022-09-02T10:19:27.590Z,1003.58
2022-09-02T10:20:27.581Z,1003.61
2022-09-02T10:21:27.568Z,1003.73
2022-09-02T10:22:38.482Z,1003.78
2022-09-02T10:23:28.549Z,1003.55
2022-09-02T10:24:27.537Z,1003.54
2022-09-02T10:25:32.567Z,1003.52
2022-09-02T10:26:27.518Z,1003.48
2022-09-02T10:27:27.540Z,1003.50
2022-09-02T10:28:27.495Z,1003.60
2022-09-02T10:29:27.484Z,1003.50
2022-09-02T10:30:27.471Z,1003.52
2022-09-02T10:31:27.523Z,1003.42
2022-09-02T10:32:27.466Z,1003.45
2022-09-02T10:33:27.490Z,1003.44
2022-09-02T10:34:27.439Z,1003.47
2022-09-02T10:35:27.415Z,1003.40
2022-09-02T10:36:32.513Z,1003.66
2022-09-02T10:37:27.411Z,1003.42
2022-09-02T10:38:27.387Z,1003.55
2022-09-02T10:39:27.372Z,1003.37
2022-09-02T10:40:27.501Z,1003.69
2022-09-02T10:41:27.356Z,1003.34
2022-09-02T10:42:27.354Z,1003.41
2022-09-02T10:43:27.327Z,1003.37
2022-09-02T10:44:27.323Z,1003.28
2022-09-02T10:45:27.304Z,1003.40
2022-09-02T10:46:27.348Z,1003.38
2022-09-02T10:47:32.317Z,1003.52
2022-09-02T10:48:27.274Z,1003.48
2022-09-02T10:49:27.264Z,1003.43
2022-09-02T10:50:27.260Z,1003.45
2022-09-02T10:51:27.245Z,1003.48
2022-09-02T10:52:27.249Z,1003.32
2022-09-02T10:53:27.218Z,1003.36
2022-09-02T10:54:27.211Z,1003.35
2022-09-02T10:55:27.196Z,1003.45
2022-09-02T10:56:27.188Z,1003.24
2022-09-02T10:57:27.195Z,1003.25
2022-09-02T10:58:32.189Z,1003.19
2022-09-02T10:59:27.156Z,1003.24
2022-09-02T11:00:27.162Z,1003.27
2022-09-02T11:01:27.132Z,1003.22
2022-09-02T11:02:27.148Z,1003.22
2022-09-02T11:03:27.135Z,1003.10
2022-09-02T11:04:27.101Z,1003.11
2022-09-02T11:05:27.107Z,1003.04
2022-09-02T11:06:31.796Z,1003.08
2022-09-02T11:07:28.075Z,1003.05
2022-09-02T11:08:31.369Z,1003.09
2022-09-02T11:09:32.073Z,1003.05
2022-09-02T11:10:27.037Z,1003.04
2022-09-02T11:11:27.022Z,1002.99
2022-09-02T11:12:27.023Z,1002.99
2022-09-02T11:13:26.999Z,1002.96
2022-09-02T11:14:26.991Z,1002.93
2022-09-02T11:15:26.991Z,1002.97
2022-09-02T11:16:27.079Z,1002.96
2022-09-02T11:17:26.967Z,1002.99
2022-09-02T11:18:27.030Z,1002.76
2022-09-02T11:19:26.933Z,1002.90
2022-09-02T11:20:31.954Z,1002.90
2022-09-02T11:21:31.912Z,1002.86
2022-09-02T11:22:27.912Z,1002.89
2022-09-02T11:23:26.890Z,1002.92
2022-09-02T11:24:26.883Z,1002.87
2022-09-02T11:25:26.868Z,1002.87
2022-09-02T11:26:26.867Z,1002.81
2022-09-02T11:27:41.479Z,1002.97
2022-09-02T11:28:27.845Z,1002.88
2022-09-02T11:29:26.825Z,1002.83
2022-09-02T11:30:26.815Z,1002.88
2022-09-02T11:31:32.904Z,1002.77
2022-09-02T11:32:26.801Z,1002.73
2022-09-02T11:33:26.802Z,1002.80
2022-09-02T11:34:26.770Z,1002.72
2022-09-02T11:35:26.760Z,1002.72
2022-09-02T11:36:30.950Z,1002.80
2022-09-02T11:37:27.757Z,1002.76
2022-09-02T11:38:26.736Z,1002.82
2022-09-02T11:39:36.622Z,1002.69
2022-09-02T11:40:36.668Z,1002.70
2022-09-02T11:41:36.731Z,1002.61
2022-09-02T11:42:32.711Z,1002.69
2022-09-02T11:43:26.714Z,1002.60
2022-09-02T11:44:29.381Z,1002.72
2022-09-02T11:45:26.707Z,1002.79
2022-09-02T11:46:26.678Z,1002.66
2022-09-02T11:47:26.636Z,1002.63
2022-09-02T11:48:26.630Z,1002.68
2022-09-02T11:49:26.715Z,1002.60
2022-09-02T11:50:26.625Z,1002.67
2022-09-02T11:51:26.586Z,1002.68
2022-09-02T11:52:26.578Z,1002.71
2022-09-02T11:53:31.597Z,1002.61
2022-09-02T11:54:26.558Z,1002.55
2022-09-02T11:55:26.553Z,1002.65
2022-09-02T11:56:26.537Z,1002.60
2022-09-02T11:57:26.519Z,1002.61
2022-09-02T11:58:26.520Z,1002.62
2022-09-02T11:59:26.499Z,1002.60
2022-09-02T12:00:26.491Z,1002.61
2022-09-02T12:01:26.479Z,1002.60
2022-09-02T12:02:26.483Z,1002.61
2022-09-02T12:03:43.057Z,1002.66
2022-09-02T12:05:02.730Z,1002.63
2022-09-02T12:05:27.498Z,1002.64
2022-09-02T12:06:26.546Z,1002.59
2022-09-02T12:07:32.010Z,1002.61
2022-09-02T12:08:27.415Z,1002.74
2022-09-02T12:09:26.399Z,1002.94
2022-09-02T12:10:26.390Z,1002.90
2022-09-02T12:11:26.368Z,1002.86
2022-09-02T12:12:26.363Z,1002.87
2022-09-02T12:13:26.360Z,1002.91
2022-09-02T12:14:26.338Z,1002.85
2022-09-02T12:15:31.347Z,1002.79
2022-09-02T12:16:26.442Z,1002.80
2022-09-02T12:17:26.339Z,1002.77
2022-09-02T12:18:26.474Z,1002.73
2022-09-02T12:19:26.322Z,1002.77
2022-09-02T12:20:26.275Z,1002.83
2022-09-02T12:21:26.264Z,1002.79
2022-09-02T12:22:26.252Z,1002.77
2022-09-02T12:23:26.254Z,1002.78
2022-09-02T12:24:26.452Z,1002.73
2022-09-02T12:25:27.025Z,1002.81
2022-09-02T12:26:26.215Z,1002.69
2022-09-02T12:27:26.198Z,1002.57
2022-09-02T12:28:31.482Z,1002.61
2022-09-02T12:29:26.200Z,1002.59
2022-09-02T12:30:26.195Z,1002.64
2022-09-02T12:31:26.212Z,1002.58
2022-09-02T12:32:26.145Z,1002.57
2022-09-02T12:33:26.155Z,1002.55
2022-09-02T12:34:26.135Z,1002.61
2022-09-02T12:35:26.226Z,1002.55
2022-09-02T12:36:26.107Z,1002.62
2022-09-02T12:37:26.112Z,1002.58
2022-09-02T12:38:26.092Z,1002.58
2022-09-02T12:39:26.073Z,1002.60
2022-09-02T12:40:26.169Z,1002.60
2022-09-02T12:41:32.077Z,1002.56
2022-09-02T12:42:26.085Z,1002.42
2022-09-02T12:43:26.086Z,1002.39
2022-09-02T12:44:26.023Z,1002.39
2022-09-02T12:45:29.203Z,1002.42
2022-09-02T12:46:26.109Z,1002.28
2022-09-02T12:47:25.992Z,1002.24
2022-09-02T12:48:38.451Z,1002.16
2022-09-02T12:49:26.976Z,1002.19
2022-09-02T12:50:25.962Z,1002.17
2022-09-02T12:51:25.951Z,1002.20
2022-09-02T12:52:25.947Z,1002.33
2022-09-02T12:53:25.945Z,1002.31
2022-09-02T12:54:30.948Z,1002.26
2022-09-02T12:55:25.914Z,1002.14
2022-09-02T12:56:25.931Z,1002.13
2022-09-02T12:57:25.891Z,1002.11
2022-09-02T12:58:25.888Z,1002.14
2022-09-02T12:59:25.867Z,1002.02
2022-09-02T13:00:25.856Z,1002.08
2022-09-02T13:01:26.022Z,1002.08
2022-09-02T13:02:28.212Z,1002.04
2022-09-02T13:03:25.836Z,1002.04
2022-09-02T13:04:25.819Z,1002.02
2022-09-02T13:05:30.835Z,1001.93
2022-09-02T13:06:25.790Z,1001.93
2022-09-02T13:07:25.792Z,1001.96
2022-09-02T13:08:25.780Z,1001.84
2022-09-02T13:09:25.829Z,1001.90
2022-09-02T13:10:25.758Z,1001.86
2022-09-02T13:11:25.761Z,1001.86
2022-09-02T13:12:25.731Z,1001.88
2022-09-02T13:13:25.736Z,1001.88
2022-09-02T13:14:25.706Z,1001.83
2022-09-02T13:15:25.697Z,1001.86
2022-09-02T13:16:30.706Z,1001.83
2022-09-02T13:17:36.174Z,1001.83
2022-09-02T13:18:26.698Z,1001.78
2022-09-02T13:19:25.654Z,1001.79
2022-09-02T13:20:25.640Z,1001.74
2022-09-02T13:21:25.633Z,1001.72
2022-09-02T13:22:25.618Z,1001.72
2022-09-02T13:23:31.506Z,1001.68
2022-09-02T13:24:26.595Z,1001.72
2022-09-02T13:25:25.684Z,1001.64
2022-09-02T13:26:47.953Z,1001.68
2022-09-02T13:27:26.568Z,1001.60
2022-09-02T13:28:25.562Z,1001.56
2022-09-02T13:29:30.579Z,1001.57
2022-09-02T13:30:25.563Z,1001.58
2022-09-02T13:31:25.567Z,1001.57
2022-09-02T13:32:25.509Z,1001.56
2022-09-02T13:33:25.515Z,1001.60
2022-09-02T13:34:25.488Z,1001.61
2022-09-02T13:35:25.478Z,1001.53
2022-09-02T13:36:25.483Z,1001.49
2022-09-02T13:37:25.464Z,1001.45
2022-09-02T13:38:25.693Z,1001.51
2022-09-02T13:39:25.437Z,1001.50
2022-09-02T13:40:25.422Z,1001.40
2022-09-02T13:41:25.427Z,1001.42
2022-09-02T13:42:32.918Z,1001.46
2022-09-02T13:43:26.147Z,1001.41
2022-09-02T13:44:25.379Z,1001.48
2022-09-02T13:45:25.370Z,1001.47
2022-09-02T13:46:25.387Z,1001.44
2022-09-02T13:47:25.347Z,1001.49
2022-09-02T13:48:25.348Z,1001.35
2022-09-02T13:49:25.333Z,1001.35
2022-09-02T13:50:25.315Z,1001.45
2022-09-02T13:51:25.309Z,1001.41
2022-09-02T13:53:19.675Z,1001.38
2022-09-02T13:54:11.736Z,1001.33
2022-09-02T13:54:26.449Z,1001.35
2022-09-02T13:55:25.260Z,1001.33
2022-09-02T13:56:25.254Z,1001.21
2022-09-02T13:57:25.926Z,1001.25
2022-09-02T13:58:25.237Z,1001.23
2022-09-02T13:59:25.217Z,1001.29
2022-09-02T14:00:25.310Z,1001.24
2022-09-02T14:01:25.443Z,1001.18
2022-09-02T14:02:25.444Z,1001.17
2022-09-02T14:03:25.518Z,1001.16
2022-09-02T14:04:30.188Z,1001.19
2022-09-02T14:05:25.150Z,1001.09
2022-09-02T14:06:25.137Z,1001.09
2022-09-02T14:07:25.204Z,1001.12
2022-09-02T14:08:25.127Z,1001.18
2022-09-02T14:09:25.112Z,1001.23
2022-09-02T14:10:25.094Z,1001.18
2022-09-02T14:11:25.108Z,1001.19
2022-09-02T14:12:25.073Z,1001.13
2022-09-02T14:13:25.078Z,1001.14
2022-09-02T14:14:25.073Z,1001.11
2022-09-02T14:15:30.161Z,1001.12
2022-09-02T14:16:25.070Z,1001.11
2022-09-02T14:17:25.046Z,1000.97
2022-09-02T14:18:25.052Z,1000.93
2022-09-02T14:19:24.996Z,1001.01
2022-09-02T14:20:24.984Z,1000.95
2022-09-02T14:21:24.997Z,1000.92
2022-09-02T14:22:24.966Z,1000.96
2022-09-02T14:23:24.963Z,1000.94
2022-09-02T14:24:24.946Z,1000.85
2022-09-02T14:25:27.430Z,1000.90
2022-09-02T14:26:29.952Z,1000.82
2022-09-02T14:27:24.927Z,1000.82
2022-09-02T14:28:24.907Z,1000.83
2022-09-02T14:29:24.886Z,1000.72
2022-09-02T14:30:24.887Z,1000.74
2022-09-02T14:31:24.885Z,1000.72
2022-09-02T14:32:24.851Z,1000.74
2022-09-02T14:33:24.853Z,1000.68
2022-09-02T14:34:24.833Z,1000.73
2022-09-02T14:35:24.820Z,1000.70
2022-09-02T14:36:24.809Z,1000.57
2022-09-02T14:37:29.825Z,1000.65
2022-09-02T14:38:24.804Z,1000.65
2022-09-02T14:39:24.826Z,1000.60
2022-09-02T14:40:24.764Z,1000.60
2022-09-02T14:41:24.754Z,1000.60
2022-09-02T14:42:28.403Z,1000.57
2022-09-02T14:43:24.750Z,1000.62
2022-09-02T14:44:24.725Z,1000.56
2022-09-02T14:45:24.713Z,1000.56
2022-09-02T14:46:24.798Z,1000.59
2022-09-02T14:47:24.688Z,1000.50
2022-09-02T14:48:29.736Z,1000.50
2022-09-02T14:49:24.668Z,1000.54
2022-09-02T14:50:24.661Z,1000.51
2022-09-02T14:51:24.646Z,1000.48
2022-09-02T14:52:24.632Z,1000.43
2022-09-02T14:53:24.630Z,1000.46
2022-09-02T14:54:24.622Z,1000.44
2022-09-02T14:55:24.601Z,1000.50
2022-09-02T14:56:24.590Z,1000.45
2022-09-02T14:57:24.580Z,1000.48
2022-09-02T14:58:27.368Z,1000.43
2022-09-02T14:59:29.591Z,1000.47
2022-09-02T15:00:24.548Z,1000.48
2022-09-02T15:01:24.581Z,1000.51
2022-09-02T15:02:24.527Z,1000.46
2022-09-02T15:03:24.513Z,1000.51
2022-09-02T15:04:24.514Z,1000.44
2022-09-02T15:05:24.549Z,1000.48
2022-09-02T15:06:24.481Z,1000.46
2022-09-02T15:07:24.476Z,1000.38
2022-09-02T15:08:24.593Z,1000.42
2022-09-02T15:09:24.462Z,1000.44
2022-09-02T15:10:29.477Z,1000.43
2022-09-02T15:11:24.431Z,1000.41
2022-09-02T15:12:24.421Z,1000.42
2022-09-02T15:13:24.407Z,1000.42
2022-09-02T15:14:24.401Z,1000.40
2022-09-02T15:15:24.503Z,1000.35
2022-09-02T15:16:24.381Z,1000.37
2022-09-02T15:17:24.360Z,1000.35
2022-09-02T15:18:24.636Z,1000.35
2022-09-02T15:19:24.350Z,1000.40
2022-09-02T15:20:24.327Z,1000.37
2022-09-02T15:21:29.343Z,1000.32
2022-09-02T15:22:24.310Z,1000.29
2022-09-02T15:23:24.444Z,1000.30
2022-09-02T15:24:24.294Z,1000.34
2022-09-02T15:25:24.274Z,1000.33
2022-09-02T15:26:24.263Z,1000.37
2022-09-02T15:27:24.259Z,1000.43
2022-09-02T15:28:24.241Z,1000.40
2022-09-02T15:29:28.782Z,1000.38
2022-09-02T15:30:24.219Z,1000.42
2022-09-02T15:31:24.262Z,1000.36
2022-09-02T15:32:29.218Z,1000.37
2022-09-02T15:33:24.186Z,1000.40
2022-09-02T15:34:24.186Z,1000.44
2022-09-02T15:35:24.198Z,1000.35
2022-09-02T15:36:24.152Z,1000.28
2022-09-02T15:37:24.142Z,1000.36
2022-09-02T15:38:24.130Z,1000.27
2022-09-02T15:39:24.217Z,1000.29
2022-09-02T15:40:24.110Z,1000.37
2022-09-02T15:41:24.098Z,1000.40
2022-09-02T15:42:24.086Z,1000.33
2022-09-02T15:43:29.101Z,1000.36
2022-09-02T15:44:24.076Z,1000.32
2022-09-02T15:45:24.054Z,1000.35
2022-09-02T15:46:24.109Z,1000.29
2022-09-02T15:47:24.036Z,1000.28
2022-09-02T15:48:24.019Z,1000.30
2022-09-02T15:49:24.019Z,1000.23
2022-09-02T15:50:24.000Z,1000.29
2022-09-02T15:51:23.992Z,1000.26
2022-09-02T15:52:24.001Z,1000.27
2022-09-02T15:53:24.104Z,1000.19
2022-09-02T15:54:29.002Z,1000.28
2022-09-02T15:55:29.454Z,1000.25
2022-09-02T15:56:24.931Z,1000.23
2022-09-02T15:57:23.930Z,1000.27
2022-09-02T15:58:23.914Z,1000.28
2022-09-02T15:59:23.920Z,1000.27
2022-09-02T16:00:23.892Z,1000.23
2022-09-02T16:01:25.302Z,1000.28
2022-09-02T16:02:23.938Z,1000.26
2022-09-02T16:03:23.982Z,1000.25
2022-09-02T16:04:23.854Z,1000.26
2022-09-02T16:05:28.858Z,1000.26